sensor_id;sensor_type;location;lat;lon;timestamp;temperature;humidity
15947;DHT22;8072;52.554;7.966;2023-06-10T00:02:09;18.90;99.90
15947;DHT22;8072;52.554;7.966;2023-06-10T00:04:34;18.80;99.90
15947;DHT22;8072;52.554;7.966;2023-06-10T00:07:05;18.70;99.90
15947;DHT22;8072;52.554;7.966;2023-06-10T00:09:37;18.70;99.90
15947;DHT22;8072;52.554;7.966;2023-06-10T00:12:08;18.60;99.90
15947;DHT22;8072;52.554;7.966;2023-06-10T00:14:39;18.60;99.90
15947;DHT22;8072;52.554;7.966;2023-06-10T00:17:06;18.60;99.90
15947;DHT22;8072;52.554;7.966;2023-06-10T00:19:34;18.60;99.90
15947;DHT22;8072;52.554;7.966;2023-06-10T00:22:00;18.50;99.90
15947;DHT22;8072;52.554;7.966;2023-06-10T00:24:26;18.50;99.90
15947;DHT22;8072;52.554;7.966;2023-06-10T00:26:52;18.50;99.90
15947;DHT22;8072;52.554;7.966;2023-06-10T00:29:19;18.40;99.90
15947;DHT22;8072;52.554;7.966;2023-06-10T00:31:45;18.40;99.90
15947;DHT22;8072;52.554;7.966;2023-06-10T00:34:12;18.40;99.90
15947;DHT22;8072;52.554;7.966;2023-06-10T00:36:38;18.40;99.90
15947;DHT22;8072;52.554;7.966;2023-06-10T00:39:03;18.40;99.90
15947;DHT22;8072;52.554;7.966;2023-06-10T00:41:31;18.30;99.90
15947;DHT22;8072;52.554;7.966;2023-06-10T00:43:59;18.30;99.90
15947;DHT22;8072;52.554;7.966;2023-06-10T00:46:26;18.20;99.90
15947;DHT22;8072;52.554;7.966;2023-06-10T00:48:52;18.10;99.90
15947;DHT22;8072;52.554;7.966;2023-06-10T00:51:18;18.10;99.90
15947;DHT22;8072;52.554;7.966;2023-06-10T00:53:44;18.00;99.90
15947;DHT22;8072;52.554;7.966;2023-06-10T00:56:10;17.90;99.90
15947;DHT22;8072;52.554;7.966;2023-06-10T00:58:36;17.90;99.90
15947;DHT22;8072;52.554;7.966;2023-06-10T01:01:02;17.90;99.90
15947;DHT22;8072;52.554;7.966;2023-06-10T01:03:29;17.90;99.90
15947;DHT22;8072;52.554;7.966;2023-06-10T01:06:36;17.90;99.90
15947;DHT22;8072;52.554;7.966;2023-06-10T01:09:18;18.00;99.90
15947;DHT22;8072;52.554;7.966;2023-06-10T01:12:05;18.00;99.90
15947;DHT22;8072;52.554;7.966;2023-06-10T01:14:36;18.00;99.90
15947;DHT22;8072;52.554;7.966;2023-06-10T01:17:02;18.00;99.90
15947;DHT22;8072;52.554;7.966;2023-06-10T01:19:29;17.90;99.90
15947;DHT22;8072;52.554;7.966;2023-06-10T01:21:57;17.80;99.90
15947;DHT22;8072;52.554;7.966;2023-06-10T01:24:26;17.70;99.90
15947;DHT22;8072;52.554;7.966;2023-06-10T01:26:53;17.70;99.90
15947;DHT22;8072;52.554;7.966;2023-06-10T01:29:43;17.60;99.90
15947;DHT22;8072;52.554;7.966;2023-06-10T01:32:33;17.70;99.90
15947;DHT22;8072;52.554;7.966;2023-06-10T01:35:02;17.70;99.90
15947;DHT22;8072;52.554;7.966;2023-06-10T01:37:28;17.60;99.90
15947;DHT22;8072;52.554;7.966;2023-06-10T01:39:57;17.60;99.90
15947;DHT22;8072;52.554;7.966;2023-06-10T01:42:25;17.60;99.90
15947;DHT22;8072;52.554;7.966;2023-06-10T01:44:51;17.60;99.90
15947;DHT22;8072;52.554;7.966;2023-06-10T01:47:17;17.50;99.90
15947;DHT22;8072;52.554;7.966;2023-06-10T01:49:43;17.40;99.90
15947;DHT22;8072;52.554;7.966;2023-06-10T01:52:09;17.40;99.90
15947;DHT22;8072;52.554;7.966;2023-06-10T01:54:34;17.40;99.90
15947;DHT22;8072;52.554;7.966;2023-06-10T01:57:01;17.40;99.90
15947;DHT22;8072;52.554;7.966;2023-06-10T01:59:27;17.30;99.90
15947;DHT22;8072;52.554;7.966;2023-06-10T02:01:53;17.20;99.90
15947;DHT22;8072;52.554;7.966;2023-06-10T02:04:19;17.10;99.90
15947;DHT22;8072;52.554;7.966;2023-06-10T02:06:44;17.00;99.90
15947;DHT22;8072;52.554;7.966;2023-06-10T02:09:11;16.90;99.90
15947;DHT22;8072;52.554;7.966;2023-06-10T02:11:36;16.80;99.90
15947;DHT22;8072;52.554;7.966;2023-06-10T02:14:02;16.80;99.90
15947;DHT22;8072;52.554;7.966;2023-06-10T02:16:29;16.70;99.90
15947;DHT22;8072;52.554;7.966;2023-06-10T02:18:55;16.60;99.90
15947;DHT22;8072;52.554;7.966;2023-06-10T02:21:21;16.50;99.90
15947;DHT22;8072;52.554;7.966;2023-06-10T02:23:47;16.40;99.90
15947;DHT22;8072;52.554;7.966;2023-06-10T02:26:13;16.30;99.90
15947;DHT22;8072;52.554;7.966;2023-06-10T02:28:42;16.30;99.90
15947;DHT22;8072;52.554;7.966;2023-06-10T02:31:08;16.30;99.90
15947;DHT22;8072;52.554;7.966;2023-06-10T02:33:34;16.30;99.90
15947;DHT22;8072;52.554;7.966;2023-06-10T02:36:00;16.20;99.90
15947;DHT22;8072;52.554;7.966;2023-06-10T02:38:26;16.20;99.90
15947;DHT22;8072;52.554;7.966;2023-06-10T02:40:53;16.20;99.90
15947;DHT22;8072;52.554;7.966;2023-06-10T02:43:19;16.20;99.90
15947;DHT22;8072;52.554;7.966;2023-06-10T02:45:45;16.10;99.90
15947;DHT22;8072;52.554;7.966;2023-06-10T02:48:10;16.10;99.90
15947;DHT22;8072;52.554;7.966;2023-06-10T02:50:36;16.10;99.90
15947;DHT22;8072;52.554;7.966;2023-06-10T02:53:04;16.00;99.90
15947;DHT22;8072;52.554;7.966;2023-06-10T02:55:30;16.00;99.90
15947;DHT22;8072;52.554;7.966;2023-06-10T02:57:56;15.90;99.90
15947;DHT22;8072;52.554;7.966;2023-06-10T03:00:22;15.80;99.90
15947;DHT22;8072;52.554;7.966;2023-06-10T03:02:49;15.70;99.90
15947;DHT22;8072;52.554;7.966;2023-06-10T03:05:19;15.60;99.90
15947;DHT22;8072;52.554;7.966;2023-06-10T03:07:45;15.60;99.90
15947;DHT22;8072;52.554;7.966;2023-06-10T03:10:19;15.50;99.90
15947;DHT22;8072;52.554;7.966;2023-06-10T03:12:45;15.50;99.90
15947;DHT22;8072;52.554;7.966;2023-06-10T03:15:13;15.40;99.90
15947;DHT22;8072;52.554;7.966;2023-06-10T03:17:42;15.40;99.90
15947;DHT22;8072;52.554;7.966;2023-06-10T03:20:09;15.40;99.90
15947;DHT22;8072;52.554;7.966;2023-06-10T03:22:35;15.50;99.90
15947;DHT22;8072;52.554;7.966;2023-06-10T03:25:01;15.50;99.90
15947;DHT22;8072;52.554;7.966;2023-06-10T03:27:27;15.50;99.90
15947;DHT22;8072;52.554;7.966;2023-06-10T03:29:54;15.60;99.90
15947;DHT22;8072;52.554;7.966;2023-06-10T03:32:20;15.60;99.90
15947;DHT22;8072;52.554;7.966;2023-06-10T03:34:46;15.60;99.90
15947;DHT22;8072;52.554;7.966;2023-06-10T03:37:13;15.70;99.90
15947;DHT22;8072;52.554;7.966;2023-06-10T03:39:39;15.70;99.90
15947;DHT22;8072;52.554;7.966;2023-06-10T03:42:05;15.70;99.90
15947;DHT22;8072;52.554;7.966;2023-06-10T03:44:31;15.70;99.90
15947;DHT22;8072;52.554;7.966;2023-06-10T03:46:57;15.70;99.90
15947;DHT22;8072;52.554;7.966;2023-06-10T03:49:23;15.70;99.90
15947;DHT22;8072;52.554;7.966;2023-06-10T03:51:53;15.70;99.90
15947;DHT22;8072;52.554;7.966;2023-06-10T03:54:19;15.70;99.90
15947;DHT22;8072;52.554;7.966;2023-06-10T03:56:45;15.70;99.90
15947;DHT22;8072;52.554;7.966;2023-06-10T03:59:11;15.70;99.90
15947;DHT22;8072;52.554;7.966;2023-06-10T04:01:36;15.70;99.90
15947;DHT22;8072;52.554;7.966;2023-06-10T04:04:03;15.70;99.90
15947;DHT22;8072;52.554;7.966;2023-06-10T04:06:29;15.60;99.90
15947;DHT22;8072;52.554;7.966;2023-06-10T04:08:55;15.60;99.90
15947;DHT22;8072;52.554;7.966;2023-06-10T04:11:25;15.60;99.90
15947;DHT22;8072;52.554;7.966;2023-06-10T04:13:51;15.50;99.90
15947;DHT22;8072;52.554;7.966;2023-06-10T04:16:17;15.50;99.90
15947;DHT22;8072;52.554;7.966;2023-06-10T04:18:43;15.50;99.90
15947;DHT22;8072;52.554;7.966;2023-06-10T04:21:09;15.50;99.90
15947;DHT22;8072;52.554;7.966;2023-06-10T04:23:35;15.50;99.90
15947;DHT22;8072;52.554;7.966;2023-06-10T04:26:02;15.50;99.90
15947;DHT22;8072;52.554;7.966;2023-06-10T04:28:28;15.50;99.90
15947;DHT22;8072;52.554;7.966;2023-06-10T04:30:54;15.40;99.90
15947;DHT22;8072;52.554;7.966;2023-06-10T04:33:20;15.40;99.90
15947;DHT22;8072;52.554;7.966;2023-06-10T04:35:45;15.40;99.90
15947;DHT22;8072;52.554;7.966;2023-06-10T04:38:13;15.40;99.90
15947;DHT22;8072;52.554;7.966;2023-06-10T04:40:39;15.50;99.90
15947;DHT22;8072;52.554;7.966;2023-06-10T04:43:05;15.50;99.90
15947;DHT22;8072;52.554;7.966;2023-06-10T04:45:31;15.50;99.90
15947;DHT22;8072;52.554;7.966;2023-06-10T04:47:57;15.40;99.90
15947;DHT22;8072;52.554;7.966;2023-06-10T04:50:23;15.50;99.90
15947;DHT22;8072;52.554;7.966;2023-06-10T04:52:49;15.50;99.90
15947;DHT22;8072;52.554;7.966;2023-06-10T04:55:16;15.50;99.90
15947;DHT22;8072;52.554;7.966;2023-06-10T04:57:41;15.60;99.90
15947;DHT22;8072;52.554;7.966;2023-06-10T05:00:08;15.60;99.90
15947;DHT22;8072;52.554;7.966;2023-06-10T05:02:34;15.60;99.90
15947;DHT22;8072;52.554;7.966;2023-06-10T05:05:00;15.70;99.90
15947;DHT22;8072;52.554;7.966;2023-06-10T05:07:26;15.70;99.90
15947;DHT22;8072;52.554;7.966;2023-06-10T05:09:51;15.70;99.90
15947;DHT22;8072;52.554;7.966;2023-06-10T05:12:17;15.70;99.90
15947;DHT22;8072;52.554;7.966;2023-06-10T05:14:43;15.80;99.90
15947;DHT22;8072;52.554;7.966;2023-06-10T05:17:10;15.80;99.90
15947;DHT22;8072;52.554;7.966;2023-06-10T05:19:36;15.80;99.90
15947;DHT22;8072;52.554;7.966;2023-06-10T05:22:03;15.90;99.90
15947;DHT22;8072;52.554;7.966;2023-06-10T05:24:29;15.90;99.90
15947;DHT22;8072;52.554;7.966;2023-06-10T05:26:54;15.90;99.90
15947;DHT22;8072;52.554;7.966;2023-06-10T05:29:20;15.90;99.90
15947;DHT22;8072;52.554;7.966;2023-06-10T05:31:46;16.00;99.90
15947;DHT22;8072;52.554;7.966;2023-06-10T05:34:12;16.00;99.90
15947;DHT22;8072;52.554;7.966;2023-06-10T05:36:38;16.10;99.90
15947;DHT22;8072;52.554;7.966;2023-06-10T05:39:03;16.10;99.90
15947;DHT22;8072;52.554;7.966;2023-06-10T05:41:29;16.10;99.90
15947;DHT22;8072;52.554;7.966;2023-06-10T05:43:56;16.20;99.90
15947;DHT22;8072;52.554;7.966;2023-06-10T05:46:22;16.20;99.90
15947;DHT22;8072;52.554;7.966;2023-06-10T05:48:48;16.20;99.90
15947;DHT22;8072;52.554;7.966;2023-06-10T05:51:13;16.20;99.90
15947;DHT22;8072;52.554;7.966;2023-06-10T05:53:39;16.20;99.90
15947;DHT22;8072;52.554;7.966;2023-06-10T05:56:05;16.30;99.90
15947;DHT22;8072;52.554;7.966;2023-06-10T05:58:31;16.30;99.90
15947;DHT22;8072;52.554;7.966;2023-06-10T06:00:57;16.30;99.90
15947;DHT22;8072;52.554;7.966;2023-06-10T06:03:22;16.40;99.90
15947;DHT22;8072;52.554;7.966;2023-06-10T06:05:48;16.50;99.90
15947;DHT22;8072;52.554;7.966;2023-06-10T06:08:14;16.50;99.90
15947;DHT22;8072;52.554;7.966;2023-06-10T06:10:43;16.60;99.90
15947;DHT22;8072;52.554;7.966;2023-06-10T06:13:08;16.60;99.90
15947;DHT22;8072;52.554;7.966;2023-06-10T06:15:34;16.60;99.90
15947;DHT22;8072;52.554;7.966;2023-06-10T06:18:00;16.70;99.90
15947;DHT22;8072;52.554;7.966;2023-06-10T06:20:26;16.80;99.90
15947;DHT22;8072;52.554;7.966;2023-06-10T06:22:51;16.80;99.90
15947;DHT22;8072;52.554;7.966;2023-06-10T06:25:17;16.80;99.90
15947;DHT22;8072;52.554;7.966;2023-06-10T06:27:43;16.90;99.90
15947;DHT22;8072;52.554;7.966;2023-06-10T06:30:09;17.00;99.90
15947;DHT22;8072;52.554;7.966;2023-06-10T06:32:35;17.00;99.90
15947;DHT22;8072;52.554;7.966;2023-06-10T06:35:01;17.10;99.90
15947;DHT22;8072;52.554;7.966;2023-06-10T06:37:29;17.20;99.90
15947;DHT22;8072;52.554;7.966;2023-06-10T06:39:55;17.20;99.90
15947;DHT22;8072;52.554;7.966;2023-06-10T06:42:21;17.30;99.90
15947;DHT22;8072;52.554;7.966;2023-06-10T06:44:47;17.30;99.90
15947;DHT22;8072;52.554;7.966;2023-06-10T06:47:13;17.30;99.90
15947;DHT22;8072;52.554;7.966;2023-06-10T06:49:39;17.30;99.90
15947;DHT22;8072;52.554;7.966;2023-06-10T06:52:05;17.40;99.90
15947;DHT22;8072;52.554;7.966;2023-06-10T06:54:31;17.40;99.90
15947;DHT22;8072;52.554;7.966;2023-06-10T06:56:57;17.40;99.90
15947;DHT22;8072;52.554;7.966;2023-06-10T06:59:23;17.60;99.90
15947;DHT22;8072;52.554;7.966;2023-06-10T07:01:51;17.60;99.90
15947;DHT22;8072;52.554;7.966;2023-06-10T07:04:19;17.60;99.90
15947;DHT22;8072;52.554;7.966;2023-06-10T07:06:47;17.70;99.90
15947;DHT22;8072;52.554;7.966;2023-06-10T07:09:13;17.70;99.90
15947;DHT22;8072;52.554;7.966;2023-06-10T07:11:39;17.70;99.90
15947;DHT22;8072;52.554;7.966;2023-06-10T07:14:05;17.80;99.90
15947;DHT22;8072;52.554;7.966;2023-06-10T07:16:30;17.80;99.90
15947;DHT22;8072;52.554;7.966;2023-06-10T07:18:57;17.90;99.90
15947;DHT22;8072;52.554;7.966;2023-06-10T07:21:22;18.00;99.90
15947;DHT22;8072;52.554;7.966;2023-06-10T07:23:48;18.10;99.90
15947;DHT22;8072;52.554;7.966;2023-06-10T07:26:15;18.10;99.90
15947;DHT22;8072;52.554;7.966;2023-06-10T07:28:41;18.10;99.90
15947;DHT22;8072;52.554;7.966;2023-06-10T07:31:08;18.20;99.90
15947;DHT22;8072;52.554;7.966;2023-06-10T07:33:34;18.30;99.90
15947;DHT22;8072;52.554;7.966;2023-06-10T07:36:00;18.30;99.90
15947;DHT22;8072;52.554;7.966;2023-06-10T07:38:26;18.40;99.90
15947;DHT22;8072;52.554;7.966;2023-06-10T07:40:52;18.40;99.90
15947;DHT22;8072;52.554;7.966;2023-06-10T07:43:18;18.50;99.90
15947;DHT22;8072;52.554;7.966;2023-06-10T07:45:44;18.60;99.90
15947;DHT22;8072;52.554;7.966;2023-06-10T07:48:11;18.60;99.90
15947;DHT22;8072;52.554;7.966;2023-06-10T07:50:37;18.70;99.90
15947;DHT22;8072;52.554;7.966;2023-06-10T07:53:04;18.80;99.90
15947;DHT22;8072;52.554;7.966;2023-06-10T07:55:29;18.80;99.90
15947;DHT22;8072;52.554;7.966;2023-06-10T07:57:55;18.90;99.90
15947;DHT22;8072;52.554;7.966;2023-06-10T08:00:21;19.00;99.90
15947;DHT22;8072;52.554;7.966;2023-06-10T08:02:47;19.10;99.90
15947;DHT22;8072;52.554;7.966;2023-06-10T08:05:13;19.20;99.90
15947;DHT22;8072;52.554;7.966;2023-06-10T08:07:40;19.30;99.90
15947;DHT22;8072;52.554;7.966;2023-06-10T08:10:06;19.40;99.90
15947;DHT22;8072;52.554;7.966;2023-06-10T08:12:33;19.50;99.90
15947;DHT22;8072;52.554;7.966;2023-06-10T08:14:59;19.50;99.90
15947;DHT22;8072;52.554;7.966;2023-06-10T08:17:25;19.70;99.90
15947;DHT22;8072;52.554;7.966;2023-06-10T08:19:51;19.80;99.90
15947;DHT22;8072;52.554;7.966;2023-06-10T08:22:17;19.90;99.90
15947;DHT22;8072;52.554;7.966;2023-06-10T08:24:43;19.90;99.90
15947;DHT22;8072;52.554;7.966;2023-06-10T08:27:09;20.00;99.90
15947;DHT22;8072;52.554;7.966;2023-06-10T08:29:35;20.00;99.90
15947;DHT22;8072;52.554;7.966;2023-06-10T08:32:01;20.20;99.90
15947;DHT22;8072;52.554;7.966;2023-06-10T08:34:27;20.20;99.90
15947;DHT22;8072;52.554;7.966;2023-06-10T08:36:53;20.30;99.90
15947;DHT22;8072;52.554;7.966;2023-06-10T08:39:21;20.40;99.90
15947;DHT22;8072;52.554;7.966;2023-06-10T08:44:28;20.60;99.90
15947;DHT22;8072;52.554;7.966;2023-06-10T08:46:58;20.70;99.90
15947;DHT22;8072;52.554;7.966;2023-06-10T08:49:26;20.90;99.90
15947;DHT22;8072;52.554;7.966;2023-06-10T08:51:58;21.00;99.90
15947;DHT22;8072;52.554;7.966;2023-06-10T08:54:31;21.10;99.90
15947;DHT22;8072;52.554;7.966;2023-06-10T08:56:59;21.20;99.90
15947;DHT22;8072;52.554;7.966;2023-06-10T08:59:26;21.30;99.90
15947;DHT22;8072;52.554;7.966;2023-06-10T09:01:53;21.40;99.90
15947;DHT22;8072;52.554;7.966;2023-06-10T09:04:20;21.50;99.90
15947;DHT22;8072;52.554;7.966;2023-06-10T09:06:47;21.50;99.90
15947;DHT22;8072;52.554;7.966;2023-06-10T09:09:15;21.50;99.90
15947;DHT22;8072;52.554;7.966;2023-06-10T09:11:43;21.60;99.90
15947;DHT22;8072;52.554;7.966;2023-06-10T09:14:08;21.60;99.90
15947;DHT22;8072;52.554;7.966;2023-06-10T09:16:35;21.70;99.90
15947;DHT22;8072;52.554;7.966;2023-06-10T09:19:01;21.70;99.90
15947;DHT22;8072;52.554;7.966;2023-06-10T09:21:34;21.80;99.90
15947;DHT22;8072;52.554;7.966;2023-06-10T09:24:01;21.80;99.90
15947;DHT22;8072;52.554;7.966;2023-06-10T09:26:30;21.90;99.90
15947;DHT22;8072;52.554;7.966;2023-06-10T09:29:03;22.00;99.90
15947;DHT22;8072;52.554;7.966;2023-06-10T09:31:31;22.10;99.90
15947;DHT22;8072;52.554;7.966;2023-06-10T09:34:11;22.20;99.90
15947;DHT22;8072;52.554;7.966;2023-06-10T09:36:38;22.30;99.90
15947;DHT22;8072;52.554;7.966;2023-06-10T09:39:04;22.50;99.90
15947;DHT22;8072;52.554;7.966;2023-06-10T09:41:40;22.60;99.90
15947;DHT22;8072;52.554;7.966;2023-06-10T09:44:14;22.70;99.90
15947;DHT22;8072;52.554;7.966;2023-06-10T09:46:40;22.70;99.90
15947;DHT22;8072;52.554;7.966;2023-06-10T09:49:06;22.90;99.90
15947;DHT22;8072;52.554;7.966;2023-06-10T09:51:32;22.90;99.90
15947;DHT22;8072;52.554;7.966;2023-06-10T09:53:59;23.00;99.90
15947;DHT22;8072;52.554;7.966;2023-06-10T09:56:36;23.10;99.90
15947;DHT22;8072;52.554;7.966;2023-06-10T09:59:03;23.30;99.90
15947;DHT22;8072;52.554;7.966;2023-06-10T10:01:32;23.40;99.90
15947;DHT22;8072;52.554;7.966;2023-06-10T10:03:59;23.50;99.90
15947;DHT22;8072;52.554;7.966;2023-06-10T10:06:25;23.60;99.90
15947;DHT22;8072;52.554;7.966;2023-06-10T10:08:52;23.70;99.90
15947;DHT22;8072;52.554;7.966;2023-06-10T10:11:20;23.90;99.90
15947;DHT22;8072;52.554;7.966;2023-06-10T10:13:49;24.00;99.90
15947;DHT22;8072;52.554;7.966;2023-06-10T10:16:17;24.00;99.90
15947;DHT22;8072;52.554;7.966;2023-06-10T10:19:04;24.00;99.90
15947;DHT22;8072;52.554;7.966;2023-06-10T10:21:37;24.10;99.90
15947;DHT22;8072;52.554;7.966;2023-06-10T10:24:20;24.30;99.90
15947;DHT22;8072;52.554;7.966;2023-06-10T10:26:48;24.40;99.90
15947;DHT22;8072;52.554;7.966;2023-06-10T10:29:32;24.50;99.90
15947;DHT22;8072;52.554;7.966;2023-06-10T10:32:00;24.60;99.90
15947;DHT22;8072;52.554;7.966;2023-06-10T10:37:19;24.90;99.90
15947;DHT22;8072;52.554;7.966;2023-06-10T10:39:45;25.00;99.90
15947;DHT22;8072;52.554;7.966;2023-06-10T10:42:12;25.10;99.90
15947;DHT22;8072;52.554;7.966;2023-06-10T10:44:39;25.30;99.90
15947;DHT22;8072;52.554;7.966;2023-06-10T10:47:08;25.30;99.90
15947;DHT22;8072;52.554;7.966;2023-06-10T10:49:35;25.40;99.90
15947;DHT22;8072;52.554;7.966;2023-06-10T10:52:03;25.50;99.90
15947;DHT22;8072;52.554;7.966;2023-06-10T10:54:33;25.70;99.90
15947;DHT22;8072;52.554;7.966;2023-06-10T10:57:19;25.70;99.90
15947;DHT22;8072;52.554;7.966;2023-06-10T11:02:37;26.10;99.90
15947;DHT22;8072;52.554;7.966;2023-06-10T11:05:06;26.20;99.90
15947;DHT22;8072;52.554;7.966;2023-06-10T11:07:34;26.30;99.90
15947;DHT22;8072;52.554;7.966;2023-06-10T11:12:51;26.20;99.90
15947;DHT22;8072;52.554;7.966;2023-06-10T11:15:26;26.20;99.90
15947;DHT22;8072;52.554;7.966;2023-06-10T11:23:35;26.40;99.90
15947;DHT22;8072;52.554;7.966;2023-06-10T11:31:32;26.50;99.90
15947;DHT22;8072;52.554;7.966;2023-06-10T11:36:27;26.70;99.90
15947;DHT22;8072;52.554;7.966;2023-06-10T11:38:56;26.90;99.90
15947;DHT22;8072;52.554;7.966;2023-06-10T11:41:24;27.10;99.90
15947;DHT22;8072;52.554;7.966;2023-06-10T11:43:55;27.20;99.90
15947;DHT22;8072;52.554;7.966;2023-06-10T11:46:24;27.30;99.90
15947;DHT22;8072;52.554;7.966;2023-06-10T11:48:55;27.40;99.90
15947;DHT22;8072;52.554;7.966;2023-06-10T11:51:21;27.50;99.90
15947;DHT22;8072;52.554;7.966;2023-06-10T11:53:50;27.50;99.90
15947;DHT22;8072;52.554;7.966;2023-06-10T11:56:23;27.50;99.90
15947;DHT22;8072;52.554;7.966;2023-06-10T11:59:06;27.60;99.90
15947;DHT22;8072;52.554;7.966;2023-06-10T12:01:42;27.50;99.90
15947;DHT22;8072;52.554;7.966;2023-06-10T12:04:10;27.50;99.90
15947;DHT22;8072;52.554;7.966;2023-06-10T12:06:46;27.40;99.90
15947;DHT22;8072;52.554;7.966;2023-06-10T12:09:24;27.40;99.90
15947;DHT22;8072;52.554;7.966;2023-06-10T12:14:54;27.60;99.90
15947;DHT22;8072;52.554;7.966;2023-06-10T12:20:07;27.80;99.90
15947;DHT22;8072;52.554;7.966;2023-06-10T12:22:42;27.80;99.90
15947;DHT22;8072;52.554;7.966;2023-06-10T12:25:08;27.80;99.90
15947;DHT22;8072;52.554;7.966;2023-06-10T12:27:35;27.80;99.90
15947;DHT22;8072;52.554;7.966;2023-06-10T12:30:03;27.70;99.90
15947;DHT22;8072;52.554;7.966;2023-06-10T12:32:42;27.70;99.90
15947;DHT22;8072;52.554;7.966;2023-06-10T12:35:09;27.70;99.90
15947;DHT22;8072;52.554;7.966;2023-06-10T12:37:36;27.90;99.90
15947;DHT22;8072;52.554;7.966;2023-06-10T12:40:05;27.90;99.90
15947;DHT22;8072;52.554;7.966;2023-06-10T12:42:38;28.00;99.90
15947;DHT22;8072;52.554;7.966;2023-06-10T12:45:05;28.20;99.90
15947;DHT22;8072;52.554;7.966;2023-06-10T12:47:33;28.20;99.90
15947;DHT22;8072;52.554;7.966;2023-06-10T12:50:05;28.30;99.90
15947;DHT22;8072;52.554;7.966;2023-06-10T12:52:31;28.30;99.90
15947;DHT22;8072;52.554;7.966;2023-06-10T12:54:58;28.30;99.90
15947;DHT22;8072;52.554;7.966;2023-06-10T12:57:24;28.40;99.90
15947;DHT22;8072;52.554;7.966;2023-06-10T12:59:50;28.40;99.90
15947;DHT22;8072;52.554;7.966;2023-06-10T13:02:20;28.50;99.90
15947;DHT22;8072;52.554;7.966;2023-06-10T13:04:49;28.50;99.90
15947;DHT22;8072;52.554;7.966;2023-06-10T13:07:16;28.40;99.90
15947;DHT22;8072;52.554;7.966;2023-06-10T13:09:42;28.40;99.90
15947;DHT22;8072;52.554;7.966;2023-06-10T13:12:08;28.50;99.90
15947;DHT22;8072;52.554;7.966;2023-06-10T13:14:35;28.50;99.90
15947;DHT22;8072;52.554;7.966;2023-06-10T13:17:03;28.50;99.90
15947;DHT22;8072;52.554;7.966;2023-06-10T13:19:31;28.60;99.90
15947;DHT22;8072;52.554;7.966;2023-06-10T13:21:58;28.60;99.90
15947;DHT22;8072;52.554;7.966;2023-06-10T13:24:24;28.60;99.90
15947;DHT22;8072;52.554;7.966;2023-06-10T13:26:49;28.60;99.90
15947;DHT22;8072;52.554;7.966;2023-06-10T13:29:15;28.70;99.90
15947;DHT22;8072;52.554;7.966;2023-06-10T13:31:41;28.70;99.90
15947;DHT22;8072;52.554;7.966;2023-06-10T13:34:08;28.80;99.90
15947;DHT22;8072;52.554;7.966;2023-06-10T13:36:34;28.90;99.90
15947;DHT22;8072;52.554;7.966;2023-06-10T13:39:00;28.90;99.90
15947;DHT22;8072;52.554;7.966;2023-06-10T13:41:27;29.00;99.90
15947;DHT22;8072;52.554;7.966;2023-06-10T13:43:54;29.00;99.90
15947;DHT22;8072;52.554;7.966;2023-06-10T13:46:21;29.10;99.90
15947;DHT22;8072;52.554;7.966;2023-06-10T13:48:47;29.00;99.90
15947;DHT22;8072;52.554;7.966;2023-06-10T13:51:13;29.00;99.90
15947;DHT22;8072;52.554;7.966;2023-06-10T13:53:39;29.00;99.90
15947;DHT22;8072;52.554;7.966;2023-06-10T13:56:05;29.00;99.90
15947;DHT22;8072;52.554;7.966;2023-06-10T13:58:31;28.90;99.90
15947;DHT22;8072;52.554;7.966;2023-06-10T14:00:57;28.90;99.90
15947;DHT22;8072;52.554;7.966;2023-06-10T14:03:24;28.90;99.90
15947;DHT22;8072;52.554;7.966;2023-06-10T14:05:50;28.80;99.90
15947;DHT22;8072;52.554;7.966;2023-06-10T14:08:16;28.70;99.90
15947;DHT22;8072;52.554;7.966;2023-06-10T14:10:42;28.70;99.90
15947;DHT22;8072;52.554;7.966;2023-06-10T14:13:08;28.70;99.90
15947;DHT22;8072;52.554;7.966;2023-06-10T14:15:34;28.70;99.90
15947;DHT22;8072;52.554;7.966;2023-06-10T14:18:01;28.70;99.90
15947;DHT22;8072;52.554;7.966;2023-06-10T14:20:26;28.70;99.90
15947;DHT22;8072;52.554;7.966;2023-06-10T14:22:57;28.70;99.90
15947;DHT22;8072;52.554;7.966;2023-06-10T14:25:24;28.90;99.90
15947;DHT22;8072;52.554;7.966;2023-06-10T14:27:50;29.10;99.90
15947;DHT22;8072;52.554;7.966;2023-06-10T14:30:16;29.20;99.90
15947;DHT22;8072;52.554;7.966;2023-06-10T14:32:42;29.20;99.90
15947;DHT22;8072;52.554;7.966;2023-06-10T14:35:08;29.40;99.90
15947;DHT22;8072;52.554;7.966;2023-06-10T14:37:34;29.50;99.90
15947;DHT22;8072;52.554;7.966;2023-06-10T14:40:00;29.50;99.90
15947;DHT22;8072;52.554;7.966;2023-06-10T14:42:26;29.50;99.90
15947;DHT22;8072;52.554;7.966;2023-06-10T14:44:51;29.40;99.90
15947;DHT22;8072;52.554;7.966;2023-06-10T14:47:17;29.40;99.90
15947;DHT22;8072;52.554;7.966;2023-06-10T14:49:43;29.40;99.90
15947;DHT22;8072;52.554;7.966;2023-06-10T14:52:09;29.40;99.90
15947;DHT22;8072;52.554;7.966;2023-06-10T14:54:35;29.20;99.90
15947;DHT22;8072;52.554;7.966;2023-06-10T14:57:01;29.20;99.90
15947;DHT22;8072;52.554;7.966;2023-06-10T14:59:27;29.20;99.90
15947;DHT22;8072;52.554;7.966;2023-06-10T15:01:52;29.20;99.90
15947;DHT22;8072;52.554;7.966;2023-06-10T15:04:18;29.30;99.90
15947;DHT22;8072;52.554;7.966;2023-06-10T15:06:44;29.30;99.90
15947;DHT22;8072;52.554;7.966;2023-06-10T15:09:10;29.30;99.90
15947;DHT22;8072;52.554;7.966;2023-06-10T15:11:36;29.30;99.90
15947;DHT22;8072;52.554;7.966;2023-06-10T15:14:03;29.20;99.90
15947;DHT22;8072;52.554;7.966;2023-06-10T15:16:30;29.30;99.90
15947;DHT22;8072;52.554;7.966;2023-06-10T15:18:56;29.30;99.90
15947;DHT22;8072;52.554;7.966;2023-06-10T15:21:21;29.40;99.90
15947;DHT22;8072;52.554;7.966;2023-06-10T15:23:47;29.40;99.90
15947;DHT22;8072;52.554;7.966;2023-06-10T15:26:13;29.60;99.90
15947;DHT22;8072;52.554;7.966;2023-06-10T15:28:39;29.60;99.90
15947;DHT22;8072;52.554;7.966;2023-06-10T15:31:04;29.40;99.90
15947;DHT22;8072;52.554;7.966;2023-06-10T15:33:30;29.30;99.90
15947;DHT22;8072;52.554;7.966;2023-06-10T15:35:56;29.30;99.90
15947;DHT22;8072;52.554;7.966;2023-06-10T15:38:22;29.20;99.90
15947;DHT22;8072;52.554;7.966;2023-06-10T15:40:48;29.20;99.90
15947;DHT22;8072;52.554;7.966;2023-06-10T15:43:14;29.10;99.90
15947;DHT22;8072;52.554;7.966;2023-06-10T15:45:39;29.10;99.90
15947;DHT22;8072;52.554;7.966;2023-06-10T15:48:06;29.00;99.90
15947;DHT22;8072;52.554;7.966;2023-06-10T15:50:32;28.90;99.90
15947;DHT22;8072;52.554;7.966;2023-06-10T15:52:58;28.90;99.90
15947;DHT22;8072;52.554;7.966;2023-06-10T15:55:24;28.90;99.90
15947;DHT22;8072;52.554;7.966;2023-06-10T15:57:51;28.70;99.90
15947;DHT22;8072;52.554;7.966;2023-06-10T16:00:17;28.80;99.90
15947;DHT22;8072;52.554;7.966;2023-06-10T16:02:43;28.70;99.90
15947;DHT22;8072;52.554;7.966;2023-06-10T16:05:09;28.60;99.90
15947;DHT22;8072;52.554;7.966;2023-06-10T16:07:34;28.60;99.90
15947;DHT22;8072;52.554;7.966;2023-06-10T16:10:00;28.60;99.90
15947;DHT22;8072;52.554;7.966;2023-06-10T16:12:26;28.70;99.90
15947;DHT22;8072;52.554;7.966;2023-06-10T16:14:51;28.70;99.90
15947;DHT22;8072;52.554;7.966;2023-06-10T16:17:17;28.70;99.90